createdAt,value
2018-11-06T00:02:28.453Z,48.97
2018-11-06T00:05:02.306Z,23.83
2018-11-06T00:07:30.828Z,28.30
2018-11-06T00:09:59.351Z,27.87
2018-11-06T00:12:28.769Z,27.17
2018-11-06T00:14:57.601Z,29.80
2018-11-06T00:17:26.119Z,28.90
2018-11-06T00:19:54.609Z,50.03
2018-11-06T00:22:23.102Z,31.33
2018-11-06T00:24:51.644Z,24.33
2018-11-06T00:27:20.144Z,24.23
2018-11-06T00:29:48.655Z,35.33
2018-11-06T00:32:17.163Z,34.47
2018-11-06T00:34:45.655Z,31.87
2018-11-06T00:37:14.182Z,23.43
2018-11-06T00:39:42.681Z,37.80
2018-11-06T00:42:11.196Z,50.67
2018-11-06T00:44:39.685Z,25.87
2018-11-06T00:47:08.218Z,22.43
2018-11-06T00:49:36.815Z,33.70
2018-11-06T00:52:05.321Z,37.23
2018-11-06T00:54:33.838Z,19.93
2018-11-06T00:57:02.342Z,20.60
2018-11-06T00:59:30.891Z,29.97
2018-11-06T01:01:59.404Z,20.47
2018-11-06T01:04:27.943Z,20.33
2018-11-06T01:10:45.245Z,20.67
2018-11-06T01:13:13.729Z,23.13
2018-11-06T01:15:42.237Z,23.27
2018-11-06T01:18:10.744Z,18.10
2018-11-06T01:20:39.264Z,25.63
2018-11-06T01:23:07.759Z,17.27
2018-11-06T01:25:36.314Z,19.07
2018-11-06T01:28:05.095Z,19.10
2018-11-06T01:30:33.624Z,20.50
2018-11-06T01:33:02.140Z,19.97
2018-11-06T01:35:30.614Z,18.30
2018-11-06T01:37:59.146Z,19.27
2018-11-06T01:40:27.667Z,25.97
2018-11-06T01:42:56.188Z,16.07
2018-11-06T01:45:24.683Z,24.23
2018-11-06T01:47:53.197Z,23.40
2018-11-06T01:50:21.724Z,16.03
2018-11-06T01:52:50.228Z,17.50
2018-11-06T01:55:18.748Z,15.00
2018-11-06T01:57:47.282Z,16.87
2018-11-06T02:00:18.883Z,19.73
2018-11-06T02:02:47.481Z,16.83
2018-11-06T02:05:17.076Z,16.67
2018-11-06T02:07:46.774Z,18.10
2018-11-06T02:10:15.918Z,17.23
2018-11-06T02:12:45.184Z,16.17
2018-11-06T02:15:13.735Z,14.90
2018-11-06T02:17:43.277Z,15.83
2018-11-06T02:20:12.578Z,16.60
2018-11-06T02:22:42.078Z,16.77
2018-11-06T02:25:11.060Z,15.60
2018-11-06T02:27:39.589Z,19.40
2018-11-06T02:30:09.350Z,15.80
2018-11-06T02:32:38.041Z,16.47
2018-11-06T02:35:06.693Z,13.97
2018-11-06T02:37:35.197Z,17.50
2018-11-06T02:40:03.832Z,15.40
2018-11-06T02:42:32.359Z,15.10
2018-11-06T02:45:00.835Z,15.60
2018-11-06T02:47:29.352Z,14.10
2018-11-06T02:49:57.879Z,14.53
2018-11-06T02:52:26.381Z,12.90
2018-11-06T02:54:54.894Z,13.80
2018-11-06T02:57:23.390Z,14.77
2018-11-06T02:59:51.922Z,17.10
2018-11-06T03:02:20.414Z,15.57
2018-11-06T03:04:48.914Z,14.77
2018-11-06T03:07:17.408Z,15.30
2018-11-06T03:09:45.961Z,15.70
2018-11-06T03:12:14.524Z,15.83
2018-11-06T03:14:43.047Z,16.70
2018-11-06T03:17:11.583Z,16.13
2018-11-06T03:19:40.235Z,16.63
2018-11-06T03:22:08.750Z,13.73
2018-11-06T03:24:37.262Z,13.90
2018-11-06T03:27:05.827Z,15.87
2018-11-06T03:29:34.309Z,16.90
2018-11-06T03:32:03.571Z,16.50
2018-11-06T03:34:32.095Z,28.53
2018-11-06T03:37:00.663Z,13.20
2018-11-06T03:39:29.803Z,27.30
2018-11-06T03:41:58.338Z,35.83
2018-11-06T03:44:26.836Z,15.93
2018-11-06T03:46:55.334Z,15.23
2018-11-06T03:49:23.856Z,12.13
2018-11-06T03:51:52.394Z,11.40
2018-11-06T03:54:20.868Z,13.50
2018-11-06T03:56:49.377Z,13.10
2018-11-06T03:59:17.917Z,12.60
2018-11-06T04:01:46.504Z,11.77
2018-11-06T04:04:15.056Z,12.53
2018-11-06T04:06:43.589Z,13.00
2018-11-06T04:09:13.082Z,10.80
2018-11-06T04:11:41.995Z,11.30
2018-11-06T04:14:10.949Z,10.50
2018-11-06T04:16:39.885Z,13.90
2018-11-06T04:19:08.968Z,13.10
2018-11-06T04:21:38.801Z,10.70
2018-11-06T04:24:09.590Z,10.87
2018-11-06T04:26:38.607Z,16.73
2018-11-06T04:29:08.239Z,14.00
2018-11-06T04:31:37.435Z,15.30
2018-11-06T04:34:06.386Z,11.37
2018-11-06T04:36:34.904Z,12.67
2018-11-06T04:39:06.019Z,11.40
2018-11-06T04:41:34.524Z,10.87
2018-11-06T04:44:03.963Z,16.03
2018-11-06T04:46:32.449Z,12.20
2018-11-06T04:49:00.959Z,17.57
2018-11-06T04:51:29.453Z,13.00
2018-11-06T04:53:58.554Z,11.80
2018-11-06T04:56:27.912Z,17.80
2018-11-06T04:58:56.460Z,16.33
2018-11-06T05:01:25.617Z,18.60
2018-11-06T05:03:54.102Z,9.70
2018-11-06T05:06:22.607Z,20.50
2018-11-06T05:08:51.105Z,11.00
2018-11-06T05:11:20.266Z,18.10
2018-11-06T05:13:48.900Z,14.90
2018-11-06T05:16:17.364Z,12.57
2018-11-06T05:18:46.408Z,13.87
2018-11-06T05:21:14.924Z,17.23
2018-11-06T05:23:43.473Z,12.33
2018-11-06T05:26:12.004Z,14.10
2018-11-06T05:28:41.301Z,13.23
2018-11-06T05:31:09.868Z,18.33
2018-11-06T05:33:38.378Z,12.03
2018-11-06T05:36:07.075Z,14.43
2018-11-06T05:38:35.687Z,23.33
2018-11-06T05:41:05.486Z,22.73
2018-11-06T05:43:34.474Z,21.10
2018-11-06T05:46:04.392Z,15.53
2018-11-06T05:48:32.917Z,14.17
2018-11-06T05:51:02.004Z,17.93
2018-11-06T05:53:30.545Z,12.77
2018-11-06T05:55:59.095Z,12.67
2018-11-06T05:58:27.641Z,11.13
2018-11-06T06:00:56.153Z,18.07
2018-11-06T06:03:24.745Z,14.63
2018-11-06T06:05:53.452Z,21.33
2018-11-06T06:08:21.990Z,16.73
2018-11-06T06:10:51.622Z,15.37
2018-11-06T06:13:20.092Z,18.67
2018-11-06T06:15:48.678Z,16.47
2018-11-06T06:18:17.235Z,13.17
2018-11-06T06:20:46.073Z,18.80
2018-11-06T06:23:14.655Z,16.23
2018-11-06T06:25:43.287Z,22.30
2018-11-06T06:28:11.802Z,22.37
2018-11-06T06:30:45.985Z,12.47
2018-11-06T06:33:14.860Z,17.27
2018-11-06T06:35:43.532Z,20.83
2018-11-06T06:38:12.435Z,19.32
2018-11-06T06:40:41.056Z,17.03
2018-11-06T06:43:10.259Z,24.67
2018-11-06T06:45:38.996Z,20.00
2018-11-06T06:48:11.157Z,16.47
2018-11-06T06:50:41.177Z,17.60
2018-11-06T06:53:09.711Z,20.87
2018-11-06T06:55:38.237Z,15.23
2018-11-06T06:58:06.764Z,21.77
2018-11-06T07:00:35.285Z,21.10
2018-11-06T07:03:03.771Z,15.67
2018-11-06T07:05:32.275Z,21.67
2018-11-06T07:08:00.783Z,16.60
2018-11-06T07:10:29.894Z,21.90
2018-11-06T07:12:58.486Z,14.30
2018-11-06T07:15:26.972Z,20.43
2018-11-06T07:17:55.511Z,16.43
2018-11-06T07:20:25.166Z,21.87
2018-11-06T07:22:53.718Z,14.00
2018-11-06T07:25:22.262Z,21.57
2018-11-06T07:27:50.824Z,16.27
2018-11-06T07:30:21.479Z,15.67
2018-11-06T07:32:50.019Z,19.83
2018-11-06T07:35:19.239Z,24.23
2018-11-06T07:37:47.708Z,22.40
2018-11-06T07:40:17.536Z,15.83
2018-11-06T07:42:46.078Z,21.00
2018-11-06T07:45:16.968Z,26.63
2018-11-06T07:47:45.565Z,15.13
2018-11-06T07:50:14.620Z,17.90
2018-11-06T07:52:43.331Z,20.57
2018-11-06T07:55:14.906Z,19.40
2018-11-06T07:57:43.452Z,18.10
2018-11-06T08:00:15.144Z,24.43
2018-11-06T08:02:44.637Z,26.40
2018-11-06T08:05:13.351Z,20.17
2018-11-06T08:07:43.156Z,22.50
2018-11-06T08:10:11.812Z,26.23
2018-11-06T08:12:41.897Z,21.97
2018-11-06T08:15:10.946Z,30.87
2018-11-06T08:17:39.668Z,26.13
2018-11-06T08:20:08.193Z,23.70
2018-11-06T08:22:37.256Z,30.50
2018-11-06T08:25:06.448Z,28.97
2018-11-06T08:27:34.960Z,36.93
2018-11-06T08:30:04.912Z,26.90
2018-11-06T08:32:33.860Z,21.90
2018-11-06T08:35:02.056Z,25.07
2018-11-06T08:37:30.551Z,27.17
2018-11-06T08:39:59.070Z,29.73
2018-11-06T08:42:27.649Z,28.17
2018-11-06T08:44:56.065Z,29.57
2018-11-06T08:47:24.593Z,26.33
2018-11-06T08:49:53.195Z,25.07
2018-11-06T08:52:21.680Z,28.33
2018-11-06T08:54:50.206Z,16.77
2018-11-06T08:57:18.715Z,20.73
2018-11-06T08:59:47.227Z,25.03
2018-11-06T09:02:15.715Z,25.17
2018-11-06T09:04:44.237Z,22.30
2018-11-06T09:07:12.858Z,17.63
2018-11-06T09:09:41.391Z,21.13
2018-11-06T09:12:09.930Z,23.57
2018-11-06T09:14:38.395Z,18.13
2018-11-06T09:17:07.097Z,23.13
2018-11-06T09:19:35.608Z,19.97
2018-11-06T09:22:04.352Z,23.10
2018-11-06T09:24:32.852Z,20.63
2018-11-06T09:29:36.287Z,22.73
2018-11-06T09:32:05.175Z,17.70
2018-11-06T09:34:33.706Z,19.37
2018-11-06T09:37:02.249Z,23.70
2018-11-06T09:39:30.732Z,23.63
2018-11-06T09:41:59.257Z,20.73
2018-11-06T09:44:27.782Z,19.93
2018-11-06T09:46:56.315Z,19.90
2018-11-06T09:49:24.926Z,19.03
2018-11-06T09:51:53.504Z,21.17
2018-11-06T09:54:22.135Z,24.40
2018-11-06T09:56:50.612Z,23.20
2018-11-06T09:59:19.189Z,23.37
2018-11-06T10:01:47.737Z,21.77
2018-11-06T10:04:16.315Z,20.27
2018-11-06T10:06:45.017Z,23.23
2018-11-06T10:09:13.368Z,23.07
2018-11-06T10:11:42.702Z,19.30
2018-11-06T10:14:11.229Z,17.73
2018-11-06T10:16:39.757Z,20.93
2018-11-06T10:19:08.265Z,17.37
2018-11-06T10:21:36.777Z,18.63
2018-11-06T10:24:05.640Z,19.37
2018-11-06T10:26:34.162Z,21.07
2018-11-06T10:29:02.703Z,22.23
2018-11-06T10:31:31.220Z,21.97
2018-11-06T10:33:59.705Z,18.03
2018-11-06T10:36:28.247Z,20.60
2018-11-06T10:38:56.763Z,18.53
2018-11-06T10:41:25.282Z,19.93
2018-11-06T10:43:53.814Z,17.27
2018-11-06T10:46:22.325Z,16.73
2018-11-06T10:48:50.831Z,18.33
2018-11-06T10:51:19.352Z,19.67
2018-11-06T10:53:47.890Z,17.60
2018-11-06T10:56:16.422Z,20.33
2018-11-06T10:58:44.958Z,20.80
2018-11-06T11:01:19.036Z,17.20
2018-11-06T11:04:24.017Z,19.13
2018-11-06T11:06:52.662Z,17.97
2018-11-06T11:09:21.218Z,18.43
2018-11-06T11:11:49.882Z,18.87
2018-11-06T11:14:18.397Z,19.07
2018-11-06T11:16:46.927Z,19.07
2018-11-06T11:19:15.625Z,17.17
2018-11-06T11:21:44.127Z,18.53
2018-11-06T11:24:12.630Z,16.27
2018-11-06T11:26:41.147Z,15.90
2018-11-06T11:29:09.672Z,15.13
2018-11-06T11:31:39.630Z,17.23
2018-11-06T11:34:08.162Z,20.07
2018-11-06T11:36:36.745Z,21.37
2018-11-06T11:39:06.696Z,16.37
2018-11-06T11:41:35.292Z,20.63
2018-11-06T11:44:04.410Z,21.13
2018-11-06T11:46:32.907Z,15.57
2018-11-06T11:49:01.419Z,17.13
2018-11-06T11:51:29.998Z,15.47
2018-11-06T11:53:58.505Z,17.63
2018-11-06T11:56:27.064Z,15.43
2018-11-06T11:58:55.692Z,12.23
2018-11-06T12:01:24.216Z,17.50
2018-11-06T12:03:52.763Z,11.60
2018-11-06T12:06:21.271Z,13.10
2018-11-06T12:08:50.029Z,16.87
2018-11-06T12:11:18.550Z,12.90
2018-11-06T12:13:47.063Z,14.40
2018-11-06T12:16:15.588Z,16.07
2018-11-06T12:18:44.103Z,17.87
2018-11-06T12:21:12.689Z,14.00
2018-11-06T12:23:41.186Z,12.97
2018-11-06T12:26:09.702Z,11.97
2018-11-06T12:28:38.202Z,13.60
2018-11-06T12:31:06.808Z,15.00
2018-11-06T12:33:35.322Z,19.17
2018-11-06T12:36:04.776Z,12.77
2018-11-06T12:38:33.313Z,11.73
2018-11-06T12:41:01.859Z,16.80
2018-11-06T12:43:30.431Z,14.73
2018-11-06T12:45:58.871Z,20.50
2018-11-06T12:48:27.386Z,13.23
2018-11-06T12:50:55.910Z,16.40
2018-11-06T12:53:24.413Z,16.77
2018-11-06T12:55:52.964Z,17.27
2018-11-06T12:58:21.456Z,15.93
2018-11-06T13:00:50.024Z,13.10
2018-11-06T13:03:18.673Z,21.80
2018-11-06T13:05:47.222Z,13.13
2018-11-06T13:08:15.763Z,13.00
2018-11-06T13:10:44.296Z,13.70
2018-11-06T13:13:12.867Z,20.00
2018-11-06T13:15:41.442Z,12.50
2018-11-06T13:18:09.900Z,18.53
2018-11-06T13:20:38.403Z,13.17
2018-11-06T13:23:06.995Z,14.20
2018-11-06T13:25:35.589Z,16.87
2018-11-06T13:28:04.058Z,14.97
2018-11-06T13:30:32.705Z,13.50
2018-11-06T13:33:01.213Z,15.47
2018-11-06T13:35:29.710Z,16.13
2018-11-06T13:37:58.247Z,14.13
2018-11-06T13:40:26.767Z,15.73
2018-11-06T13:42:55.504Z,13.30
2018-11-06T13:45:25.042Z,13.30
2018-11-06T13:47:53.463Z,13.43
2018-11-06T13:50:21.999Z,13.33
2018-11-06T13:52:50.535Z,16.10
2018-11-06T13:55:19.271Z,12.47
2018-11-06T13:57:47.832Z,12.13
2018-11-06T14:00:17.564Z,18.50
2018-11-06T14:02:46.221Z,19.87
2018-11-06T14:05:15.089Z,17.50
2018-11-06T14:07:43.648Z,12.23
2018-11-06T14:10:12.167Z,13.57
2018-11-06T14:12:41.555Z,13.23
2018-11-06T14:15:10.077Z,12.37
2018-11-06T14:17:38.859Z,11.93
2018-11-06T14:20:08.212Z,12.30
2018-11-06T14:22:36.762Z,18.23
2018-11-06T14:25:05.453Z,9.63
2018-11-06T14:27:33.999Z,17.63
2018-11-06T14:30:02.484Z,11.40
2018-11-06T14:32:31.058Z,11.67
2018-11-06T14:34:59.580Z,15.27
2018-11-06T14:37:28.091Z,12.13
2018-11-06T14:39:56.617Z,16.63
2018-11-06T14:42:25.205Z,14.70
2018-11-06T14:44:53.672Z,15.17
2018-11-06T14:47:22.187Z,12.70
2018-11-06T14:49:50.720Z,10.87
2018-11-06T14:52:19.236Z,15.70
2018-11-06T14:54:47.772Z,12.70
2018-11-06T14:57:16.280Z,9.60
2018-11-06T14:59:44.808Z,10.03
2018-11-06T15:02:13.392Z,12.10
2018-11-06T15:04:41.915Z,13.83
2018-11-06T15:07:10.407Z,8.93
2018-11-06T15:09:38.965Z,12.10
2018-11-06T15:12:07.528Z,10.37
2018-11-06T15:14:36.065Z,12.10
2018-11-06T15:17:04.637Z,16.47
2018-11-06T15:19:33.225Z,8.93
2018-11-06T15:22:01.966Z,23.27
2018-11-06T15:24:30.528Z,12.97
2018-11-06T15:26:59.164Z,10.87
2018-11-06T15:29:27.671Z,10.33
2018-11-06T15:31:56.199Z,11.40
2018-11-06T15:34:24.739Z,12.40
2018-11-06T15:36:53.236Z,10.43
2018-11-06T15:39:21.801Z,12.07
2018-11-06T15:41:50.396Z,12.97
2018-11-06T15:44:18.811Z,13.97
2018-11-06T15:46:47.327Z,13.77
2018-11-06T15:49:15.943Z,12.20
2018-11-06T15:51:44.442Z,13.10
2018-11-06T15:54:13.054Z,15.53
2018-11-06T15:56:41.602Z,12.63
2018-11-06T15:59:10.157Z,10.83
2018-11-06T16:01:38.770Z,12.03
2018-11-06T16:04:07.346Z,13.40
2018-11-06T16:06:35.891Z,17.77
2018-11-06T16:09:05.854Z,14.33
2018-11-06T16:11:34.447Z,11.30
2018-11-06T16:14:02.984Z,15.97
2018-11-06T16:16:31.551Z,12.00
2018-11-06T16:19:00.081Z,10.93
2018-11-06T16:21:28.658Z,13.13
2018-11-06T16:23:57.113Z,13.33
2018-11-06T16:26:25.664Z,15.43
2018-11-06T16:28:54.227Z,10.10
2018-11-06T16:31:22.841Z,14.43
2018-11-06T16:33:51.377Z,13.53
2018-11-06T16:36:19.943Z,11.80
2018-11-06T16:38:48.475Z,14.27
2018-11-06T16:44:44.749Z,15.93
2018-11-06T16:47:13.319Z,14.67
2018-11-06T16:50:13.028Z,18.27
2018-11-06T16:52:41.935Z,19.90
2018-11-06T16:55:10.991Z,18.30
2018-11-06T16:57:40.744Z,14.20
2018-11-06T17:00:11.135Z,15.47
2018-11-06T17:02:40.115Z,16.80
2018-11-06T17:05:09.752Z,15.83
2018-11-06T17:07:38.815Z,15.33
2018-11-06T17:10:09.327Z,13.90
2018-11-06T17:12:37.894Z,14.73
2018-11-06T17:15:07.551Z,13.87
2018-11-06T17:17:38.448Z,12.47
2018-11-06T17:20:09.387Z,12.87
2018-11-06T17:22:37.966Z,17.57
2018-11-06T17:25:06.982Z,15.60
2018-11-06T17:27:35.593Z,15.13
2018-11-06T17:30:04.417Z,17.60
2018-11-06T17:32:33.057Z,16.90
2018-11-06T17:35:01.549Z,15.60
2018-11-06T17:37:30.101Z,20.87
2018-11-06T17:39:58.616Z,16.73
2018-11-06T17:42:27.496Z,16.33
2018-11-06T17:44:56.026Z,18.80
2018-11-06T17:47:24.622Z,17.23
2018-11-06T17:49:53.119Z,16.73
2018-11-06T17:52:21.657Z,21.17
2018-11-06T17:54:51.151Z,20.50
2018-11-06T17:57:19.809Z,20.67
2018-11-06T17:59:48.397Z,21.57
2018-11-06T18:02:16.960Z,19.23
2018-11-06T18:04:45.544Z,17.43
2018-11-06T18:07:14.030Z,16.37
2018-11-06T18:09:42.556Z,18.17
2018-11-06T18:12:11.122Z,20.50
2018-11-06T18:14:39.643Z,19.17
2018-11-06T18:17:08.191Z,20.07
2018-11-06T18:19:36.803Z,20.33
2018-11-06T18:22:05.520Z,22.90
2018-11-06T18:24:34.055Z,19.27
2018-11-06T18:27:02.561Z,25.08
2018-11-06T18:29:31.088Z,20.43
2018-11-06T18:31:59.680Z,21.40
2018-11-06T18:34:28.232Z,20.23
2018-11-06T18:36:56.801Z,21.90
2018-11-06T18:39:25.388Z,20.13
2018-11-06T18:41:53.990Z,25.13
2018-11-06T18:44:22.502Z,17.10
2018-11-06T18:46:51.078Z,22.83
2018-11-06T18:49:19.579Z,15.10
2018-11-06T18:51:48.183Z,26.87
2018-11-06T18:54:16.847Z,20.00
2018-11-06T18:56:45.357Z,20.33
2018-11-06T18:59:16.095Z,20.90
2018-11-06T19:01:44.711Z,24.20
2018-11-06T19:04:13.436Z,20.83
2018-11-06T19:06:41.962Z,22.03
2018-11-06T19:09:11.877Z,26.63
2018-11-06T19:11:41.054Z,24.50
2018-11-06T19:14:10.255Z,24.07
2018-11-06T19:16:38.752Z,26.80
2018-11-06T19:19:07.541Z,22.70
2018-11-06T19:21:36.104Z,23.37
2018-11-06T19:24:04.998Z,23.73
2018-11-06T19:26:33.451Z,22.30
2018-11-06T19:29:02.222Z,20.47
2018-11-06T19:31:31.042Z,24.97
2018-11-06T19:33:59.561Z,22.57
2018-11-06T19:36:28.433Z,24.30
2018-11-06T19:38:56.958Z,18.07
2018-11-06T19:41:25.515Z,19.70
2018-11-06T19:43:54.031Z,20.88
2018-11-06T19:46:22.561Z,17.73
2018-11-06T19:48:51.225Z,19.77
2018-11-06T19:51:19.714Z,17.17
2018-11-06T19:53:48.318Z,16.57
2018-11-06T19:56:16.967Z,22.13
2018-11-06T19:58:45.537Z,18.50
2018-11-06T20:01:14.094Z,23.17
2018-11-06T20:03:42.735Z,24.33
2018-11-06T20:06:11.316Z,21.67
2018-11-06T20:08:39.735Z,21.73
2018-11-06T20:11:08.310Z,21.23
2018-11-06T20:13:36.925Z,17.43
2018-11-06T20:16:05.483Z,17.67
2018-11-06T20:18:34.062Z,20.67
2018-11-06T20:21:02.587Z,20.13
2018-11-06T20:23:31.228Z,17.37
2018-11-06T20:25:59.902Z,25.40
2018-11-06T20:28:28.752Z,22.47
2018-11-06T20:30:57.491Z,30.10
2018-11-06T20:33:26.212Z,26.47
2018-11-06T20:35:54.651Z,19.60
2018-11-06T20:38:23.315Z,28.67
2018-11-06T20:40:51.937Z,23.13
2018-11-06T20:43:20.617Z,18.27
2018-11-06T20:45:49.264Z,18.63
2018-11-06T20:48:17.966Z,28.57
2018-11-06T20:50:46.533Z,22.40
2018-11-06T20:53:15.066Z,24.20
2018-11-06T20:55:43.662Z,23.33
2018-11-06T20:58:12.069Z,25.50
2018-11-06T21:00:40.649Z,23.00
2018-11-06T21:03:09.195Z,24.77
2018-11-06T21:05:37.714Z,22.80
2018-11-06T21:08:06.229Z,21.73
2018-11-06T21:10:34.768Z,23.27
2018-11-06T21:13:04.228Z,21.53
2018-11-06T21:15:32.725Z,21.00
2018-11-06T21:18:01.466Z,18.57
2018-11-06T21:20:29.860Z,20.82
2018-11-06T21:22:58.414Z,18.80
2018-11-06T21:25:27.125Z,23.90
2018-11-06T21:27:55.466Z,18.03
2018-11-06T21:30:23.979Z,21.77
2018-11-06T21:32:53.202Z,22.43
2018-11-06T21:35:21.796Z,23.40
2018-11-06T21:37:50.351Z,25.53
2018-11-06T21:40:20.113Z,16.47
2018-11-06T21:42:48.976Z,25.13
2018-11-06T21:45:18.025Z,16.80
2018-11-06T21:47:47.302Z,22.43
2018-11-06T21:50:16.395Z,20.27
2018-11-06T21:52:44.938Z,20.70
2018-11-06T21:55:14.757Z,19.97
2018-11-06T21:57:43.264Z,20.47
2018-11-06T22:00:14.793Z,16.97
2018-11-06T22:02:43.234Z,15.80
2018-11-06T22:05:13.948Z,18.57
2018-11-06T22:07:42.922Z,23.10
2018-11-06T22:10:12.753Z,21.87
2018-11-06T22:12:42.139Z,13.33
2018-11-06T22:15:11.799Z,13.40
2018-11-06T22:17:40.698Z,13.53
2018-11-06T22:20:10.404Z,15.00
2018-11-06T22:22:39.085Z,15.00
2018-11-06T22:25:07.685Z,25.23
2018-11-06T22:27:36.742Z,18.20
2018-11-06T22:30:06.297Z,12.03
2018-11-06T22:32:35.058Z,15.30
2018-11-06T22:35:03.751Z,16.37
2018-11-06T22:37:32.364Z,14.67
2018-11-06T22:40:00.849Z,12.20
2018-11-06T22:42:29.367Z,13.30
2018-11-06T22:44:57.871Z,18.50
2018-11-06T22:47:26.523Z,16.90
2018-11-06T22:49:55.058Z,14.37
2018-11-06T22:52:23.651Z,16.13
2018-11-06T22:54:52.184Z,22.57
2018-11-06T22:57:20.737Z,17.67
2018-11-06T22:59:49.267Z,15.57
2018-11-06T23:02:17.785Z,12.63
2018-11-06T23:04:46.268Z,12.33
2018-11-06T23:07:20.280Z,14.53
2018-11-06T23:09:48.761Z,16.63
2018-11-06T23:12:17.285Z,17.30
2018-11-06T23:14:45.778Z,17.40
2018-11-06T23:17:14.305Z,23.43
2018-11-06T23:19:42.808Z,19.77
2018-11-06T23:22:11.325Z,18.33
2018-11-06T23:24:39.933Z,16.57
2018-11-06T23:27:08.450Z,18.73
2018-11-06T23:29:36.976Z,21.00
2018-11-06T23:32:05.775Z,18.13
2018-11-06T23:34:34.295Z,15.87
2018-11-06T23:37:02.818Z,25.37
2018-11-06T23:39:31.375Z,21.57
2018-11-06T23:41:59.921Z,16.23
2018-11-06T23:44:28.410Z,11.77
2018-11-06T23:46:56.940Z,17.40
2018-11-06T23:49:26.117Z,20.23
2018-11-06T23:51:54.629Z,17.20
2018-11-06T23:54:23.162Z,14.93
2018-11-06T23:56:51.695Z,21.40
2018-11-06T23:59:20.224Z,17.33
